createdAt,value
2023-03-04T00:02:12.808Z,102305.11
2023-03-04T00:04:43.480Z,102305.65
2023-03-04T00:07:14.243Z,102311.28
2023-03-04T00:09:44.997Z,102310.79
2023-03-04T00:12:15.766Z,102311.05
2023-03-04T00:14:46.591Z,102309.28
2023-03-04T00:17:17.318Z,102310.76
2023-03-04T00:19:48.067Z,102304.48
2023-03-04T00:22:18.844Z,102304.95
2023-03-04T00:24:49.272Z,102303.52
2023-03-04T00:27:19.775Z,102304.57
2023-03-04T00:29:49.876Z,102301.29
2023-03-04T00:32:20.840Z,102300.99
2023-03-04T00:34:51.427Z,102302.24
2023-03-04T00:37:22.284Z,102300.41
2023-03-04T00:39:52.950Z,102301.33
2023-03-04T00:42:23.546Z,102300.98
2023-03-04T00:44:54.196Z,102301.79
2023-03-04T00:47:24.685Z,102297.86
2023-03-04T00:49:55.435Z,102292.68
2023-03-04T00:52:26.203Z,102297.99
2023-03-04T00:54:56.967Z,102293.23
2023-03-04T00:57:27.741Z,102296.00
2023-03-04T00:59:58.155Z,102292.93
2023-03-04T01:02:28.973Z,102293.67
2023-03-04T01:04:59.679Z,102289.10
2023-03-04T01:07:30.456Z,102290.47
2023-03-04T01:10:01.206Z,102291.01
2023-03-04T01:12:32.021Z,102290.75
2023-03-04T01:15:02.746Z,102288.27
2023-03-04T01:17:33.608Z,102285.90
2023-03-04T01:20:04.275Z,102281.06
2023-03-04T01:22:35.050Z,102281.60
2023-03-04T01:25:05.796Z,102278.02
2023-03-04T01:27:36.576Z,102278.27
2023-03-04T01:30:07.044Z,102270.19
2023-03-04T01:32:37.892Z,102267.08
2023-03-04T01:35:08.593Z,102265.43
2023-03-04T01:37:39.345Z,102265.04
2023-03-04T01:40:09.836Z,102261.97
2023-03-04T01:42:40.606Z,102260.98
2023-03-04T01:45:11.350Z,102260.31
2023-03-04T01:47:42.193Z,102253.49
2023-03-04T01:50:12.845Z,102252.72
2023-03-04T01:52:43.778Z,102246.76
2023-03-04T01:55:14.368Z,102244.79
2023-03-04T01:57:45.126Z,102246.54
2023-03-04T02:00:15.880Z,102244.59
2023-03-04T02:02:46.629Z,102242.98
2023-03-04T02:05:17.375Z,102238.44
2023-03-04T02:07:48.168Z,102231.82
2023-03-04T02:10:18.879Z,102228.32
2023-03-04T02:12:49.649Z,102226.19
2023-03-04T02:15:20.417Z,102227.84
2023-03-04T02:17:51.194Z,102226.55
2023-03-04T02:20:21.943Z,102224.27
2023-03-04T02:22:52.662Z,102224.01
2023-03-04T02:25:23.433Z,102223.07
2023-03-04T02:27:54.264Z,102220.26
2023-03-04T02:30:24.950Z,102218.51
2023-03-04T02:32:55.831Z,102215.39
2023-03-04T02:35:26.546Z,102211.23
2023-03-04T02:37:57.281Z,102204.91
2023-03-04T02:40:28.066Z,102209.16
2023-03-04T02:42:58.848Z,102206.50
2023-03-04T02:45:29.574Z,102203.73
2023-03-04T02:48:00.360Z,102205.30
2023-03-04T02:50:31.110Z,102209.16
2023-03-04T02:53:01.898Z,102207.22
2023-03-04T02:55:32.666Z,102200.63
2023-03-04T02:58:03.436Z,102197.70
2023-03-04T03:00:34.178Z,102198.08
2023-03-04T03:03:04.672Z,102196.81
2023-03-04T03:05:35.337Z,102197.50
2023-03-04T03:08:06.199Z,102198.17
2023-03-04T03:10:36.845Z,102199.68
2023-03-04T03:13:07.605Z,102198.99
2023-03-04T03:15:38.360Z,102197.71
2023-03-04T03:18:09.347Z,102196.43
2023-03-04T03:20:39.862Z,102196.91
2023-03-04T03:23:10.647Z,102193.77
2023-03-04T03:25:41.380Z,102194.07
2023-03-04T03:28:12.147Z,102190.52
2023-03-04T03:30:42.900Z,102188.09
2023-03-04T03:33:13.390Z,102184.10
2023-03-04T03:35:44.175Z,102180.42
2023-03-04T03:38:14.906Z,102181.25
2023-03-04T03:40:45.443Z,102181.44
2023-03-04T03:43:16.151Z,102180.00
2023-03-04T03:45:46.971Z,102175.87
2023-03-04T03:48:17.710Z,102174.75
2023-03-04T03:50:48.119Z,102175.42
2023-03-04T03:53:18.922Z,102172.33
2023-03-04T03:55:49.719Z,102173.35
2023-03-04T03:58:20.444Z,102168.27
2023-03-04T04:00:51.251Z,102165.90
2023-03-04T04:03:22.017Z,102161.91
2023-03-04T04:05:52.755Z,102161.39
2023-03-04T04:08:23.542Z,102157.32
2023-03-04T04:10:54.308Z,102158.37
2023-03-04T04:13:25.085Z,102156.42
2023-03-04T04:15:55.853Z,102158.64
2023-03-04T04:18:26.619Z,102151.73
2023-03-04T04:20:57.371Z,102158.84
2023-03-04T04:23:28.213Z,102152.35
2023-03-04T04:25:58.925Z,102147.90
2023-03-04T04:28:29.409Z,102147.43
2023-03-04T04:31:00.316Z,102147.20
2023-03-04T04:33:30.927Z,102147.04
2023-03-04T04:36:01.682Z,102152.17
2023-03-04T04:38:32.432Z,102150.62
2023-03-04T04:41:03.257Z,102148.95
2023-03-04T04:43:33.932Z,102148.65
2023-03-04T04:46:04.813Z,102150.37
2023-03-04T04:48:35.443Z,102155.09
2023-03-04T04:51:06.188Z,102154.89
2023-03-04T04:53:36.941Z,102158.76
2023-03-04T04:56:07.790Z,102155.48
2023-03-04T04:58:38.450Z,102157.49
2023-03-04T05:01:09.330Z,102158.53
2023-03-04T05:03:40.024Z,102155.28
2023-03-04T05:06:10.697Z,102157.67
2023-03-04T05:08:41.571Z,102157.40
2023-03-04T05:11:12.268Z,102154.94
2023-03-04T05:13:42.671Z,102156.25
2023-03-04T05:16:13.474Z,102154.24
2023-03-04T05:18:44.172Z,102153.59
2023-03-04T05:21:14.895Z,102150.05
2023-03-04T05:23:45.637Z,102148.61
2023-03-04T05:26:16.391Z,102150.45
2023-03-04T05:28:47.231Z,102143.06
2023-03-04T05:31:18.076Z,102144.64
2023-03-04T05:33:48.703Z,102145.17
2023-03-04T05:36:19.412Z,102139.97
2023-03-04T05:38:50.176Z,102141.91
2023-03-04T05:41:20.943Z,102133.59
2023-03-04T05:43:51.709Z,102130.30
2023-03-04T05:46:22.593Z,102130.60
2023-03-04T05:48:53.216Z,102135.14
2023-03-04T05:51:23.949Z,102137.35
2023-03-04T05:53:54.764Z,102135.03
2023-03-04T05:56:25.499Z,102129.20
2023-03-04T05:58:56.223Z,102129.25
2023-03-04T06:01:26.967Z,102126.44
2023-03-04T06:03:57.848Z,102123.22
2023-03-04T06:06:28.133Z,102128.48
2023-03-04T06:08:58.892Z,102130.12
2023-03-04T06:11:29.639Z,102128.21
2023-03-04T06:14:00.500Z,102132.53
2023-03-04T06:16:31.181Z,102130.44
2023-03-04T06:19:01.936Z,102136.52
2023-03-04T06:21:32.670Z,102134.79
2023-03-04T06:24:03.551Z,102136.88
2023-03-04T06:26:34.194Z,102134.59
2023-03-04T06:29:04.954Z,102131.30
2023-03-04T06:31:35.713Z,102134.87
2023-03-04T06:34:06.513Z,102134.97
2023-03-04T06:36:37.234Z,102139.41
2023-03-04T06:39:08.061Z,102140.32
2023-03-04T06:41:38.706Z,102141.76
2023-03-04T06:44:09.473Z,102147.80
2023-03-04T06:46:40.291Z,102149.25
2023-03-04T06:49:10.823Z,102151.46
2023-03-04T06:51:41.481Z,102155.16
2023-03-04T06:54:12.259Z,102156.72
2023-03-04T06:56:43.008Z,102157.92
2023-03-04T06:59:13.498Z,102161.50
2023-03-04T07:01:44.262Z,102162.83
2023-03-04T07:04:15.144Z,102159.69
2023-03-04T07:06:45.790Z,102158.03
2023-03-04T07:09:16.562Z,102159.13
2023-03-04T07:11:47.289Z,102161.56
2023-03-04T07:14:18.135Z,102162.21
2023-03-04T07:16:48.475Z,102158.86
2023-03-04T07:19:19.203Z,102160.53
2023-03-04T07:21:49.936Z,102161.21
2023-03-04T07:24:20.695Z,102160.58
2023-03-04T07:26:51.436Z,102163.02
2023-03-04T07:29:22.205Z,102165.79
2023-03-04T07:31:53.822Z,102156.57
2023-03-04T07:34:23.711Z,102159.35
2023-03-04T07:36:54.461Z,102162.23
2023-03-04T07:39:25.222Z,102159.52
2023-03-04T07:41:55.992Z,102162.89
2023-03-04T07:44:26.473Z,102159.94
2023-03-04T07:46:57.233Z,102161.87
2023-03-04T07:49:28.015Z,102164.37
2023-03-04T07:51:58.754Z,102162.35
2023-03-04T07:54:29.592Z,102160.19
2023-03-04T07:57:00.265Z,102161.49
2023-03-04T07:59:31.037Z,102162.68
2023-03-04T08:02:01.840Z,102163.42
2023-03-04T08:04:32.609Z,102165.87
2023-03-04T08:07:03.327Z,102168.12
2023-03-04T08:09:34.096Z,102166.01
2023-03-04T08:12:04.869Z,102174.64
2023-03-04T08:14:35.669Z,102170.88
2023-03-04T08:17:06.425Z,102174.24
2023-03-04T08:19:36.936Z,102176.58
2023-03-04T08:22:07.679Z,102174.93
2023-03-04T08:24:38.080Z,102173.02
2023-03-04T08:27:08.858Z,102174.15
2023-03-04T08:29:39.617Z,102174.87
2023-03-04T08:32:10.539Z,102172.65
2023-03-04T08:34:41.128Z,102170.76
2023-03-04T08:37:11.893Z,102171.67
2023-03-04T08:39:42.640Z,102169.53
2023-03-04T08:42:13.406Z,102165.85
2023-03-04T08:44:44.142Z,102172.52
2023-03-04T08:47:15.014Z,102173.76
2023-03-04T08:49:45.637Z,102177.93
2023-03-04T08:52:16.407Z,102182.34
2023-03-04T08:54:47.217Z,102184.91
2023-03-04T08:57:17.936Z,102185.15
2023-03-04T08:59:48.699Z,102190.67
2023-03-04T09:02:19.460Z,102181.44
2023-03-04T09:04:50.203Z,102180.65
2023-03-04T09:07:20.685Z,102179.10
2023-03-04T09:09:51.517Z,102177.00
2023-03-04T09:12:21.502Z,102178.71
2023-03-04T09:15:08.357Z,102180.26
2023-03-04T09:17:22.238Z,102178.84
2023-03-04T09:19:52.975Z,102180.72
2023-03-04T09:22:23.728Z,102182.65
2023-03-04T09:24:54.185Z,102185.45
2023-03-04T09:27:24.955Z,102183.09
2023-03-04T09:29:55.743Z,102187.79
2023-03-04T09:32:26.120Z,102186.32
2023-03-04T09:34:56.838Z,102189.22
2023-03-04T09:37:27.630Z,102191.74
2023-03-04T09:39:58.335Z,102191.45
2023-03-04T09:42:29.087Z,102194.63
2023-03-04T09:44:59.823Z,102191.65
2023-03-04T09:47:30.672Z,102189.96
2023-03-04T09:50:01.323Z,102185.89
2023-03-04T09:52:31.787Z,102184.45
2023-03-04T09:55:04.694Z,102181.94
2023-03-04T09:57:33.110Z,102186.06
2023-03-04T10:00:03.804Z,102184.74
2023-03-04T10:02:34.452Z,102184.56
2023-03-04T10:05:04.956Z,102186.29
2023-03-04T10:07:35.578Z,102179.27
2023-03-04T10:10:06.348Z,102178.73
2023-03-04T10:12:37.047Z,102172.80
2023-03-04T10:15:07.782Z,102180.45
2023-03-04T10:17:38.548Z,102175.59
2023-03-04T10:20:08.992Z,102175.00
2023-03-04T10:22:39.817Z,102176.81
2023-03-04T10:25:10.489Z,102168.49
2023-03-04T10:27:41.219Z,102170.57
2023-03-04T10:30:11.922Z,102175.52
2023-03-04T10:32:42.822Z,102175.19
2023-03-04T10:35:13.359Z,102174.22
2023-03-04T10:37:44.077Z,102176.06
2023-03-04T10:40:14.791Z,102184.57
2023-03-04T10:42:45.645Z,102179.47
2023-03-04T10:45:16.252Z,102184.79
2023-03-04T10:47:47.110Z,102182.10
2023-03-04T10:50:17.742Z,102184.56
2023-03-04T10:52:48.452Z,102187.24
2023-03-04T10:55:19.181Z,102179.62
2023-03-04T10:57:49.946Z,102182.24
2023-03-04T11:00:20.711Z,102177.35
2023-03-04T11:02:51.405Z,102174.60
2023-03-04T11:05:21.402Z,102176.33
2023-03-04T11:07:56.278Z,102168.92
2023-03-04T11:10:22.227Z,102165.40
2023-03-04T11:12:52.563Z,102166.05
2023-03-04T11:15:23.397Z,102160.30
2023-03-04T11:17:54.029Z,102162.45
2023-03-04T11:20:24.739Z,102162.11
2023-03-04T11:22:55.581Z,102164.32
2023-03-04T11:25:26.179Z,102157.02
2023-03-04T11:27:56.919Z,102151.46
2023-03-04T11:30:27.676Z,102151.46
2023-03-04T11:32:58.422Z,102150.22
2023-03-04T11:35:29.147Z,102149.63
2023-03-04T11:37:59.909Z,102147.08
2023-03-04T11:40:30.625Z,102145.19
2023-03-04T11:43:01.379Z,102137.54
2023-03-04T11:45:33.921Z,102136.83
2023-03-04T11:48:02.990Z,102142.56
2023-03-04T11:50:33.597Z,102141.05
2023-03-04T11:53:04.318Z,102136.79
2023-03-04T11:55:35.050Z,102141.25
2023-03-04T11:58:05.768Z,102155.41
2023-03-04T12:00:36.493Z,102151.35
2023-03-04T12:03:07.263Z,102144.22
2023-03-04T12:05:37.983Z,102137.69
2023-03-04T12:08:08.718Z,102129.51
2023-03-04T12:10:39.090Z,102134.90
2023-03-04T12:13:09.855Z,102127.46
2023-03-04T12:15:40.362Z,102129.64
2023-03-04T12:18:11.145Z,102129.67
2023-03-04T12:20:41.805Z,102125.47
2023-03-04T12:23:12.304Z,102121.53
2023-03-04T12:25:42.668Z,102118.20
2023-03-04T12:28:13.424Z,102114.69
2023-03-04T12:30:44.259Z,102105.20
2023-03-04T12:33:14.919Z,102102.49
2023-03-04T12:35:45.669Z,102108.38
2023-03-04T12:38:16.371Z,102110.75
2023-03-04T12:40:47.079Z,102108.83
2023-03-04T12:43:18.080Z,102104.69
2023-03-04T12:45:48.605Z,102103.80
2023-03-04T12:48:19.003Z,102099.35
2023-03-04T12:50:49.774Z,102102.61
2023-03-04T12:53:20.169Z,102094.38
2023-03-04T12:55:50.889Z,102090.39
2023-03-04T12:58:21.628Z,102086.62
2023-03-04T13:00:52.353Z,102090.67
2023-03-04T13:03:23.327Z,102090.90
2023-03-04T13:05:53.975Z,102092.19
2023-03-04T13:08:24.537Z,102091.34
2023-03-04T13:10:55.358Z,102109.18
2023-03-04T13:13:26.014Z,102107.01
2023-03-04T13:15:56.932Z,102102.01
2023-03-04T13:18:27.230Z,102096.19
2023-03-04T13:20:57.961Z,102092.87
2023-03-04T13:23:28.684Z,102096.53
2023-03-04T13:25:59.393Z,102094.69
2023-03-04T13:28:30.266Z,102102.62
2023-03-04T13:31:00.949Z,102103.51
2023-03-04T13:33:31.694Z,102104.59
2023-03-04T13:36:02.338Z,102095.90
2023-03-04T13:38:32.946Z,102107.15
2023-03-04T13:41:03.704Z,102095.79
2023-03-04T13:43:34.562Z,102089.16
2023-03-04T13:46:05.259Z,102075.69
2023-03-04T13:48:36.063Z,102073.61
2023-03-04T13:51:06.833Z,102070.24
2023-03-04T13:53:37.704Z,102068.38
2023-03-04T13:56:08.448Z,102065.46
2023-03-04T13:58:38.996Z,102082.40
2023-03-04T14:01:09.639Z,102058.74
2023-03-04T14:03:40.451Z,102059.24
2023-03-04T14:06:11.143Z,102064.00
2023-03-04T14:08:41.901Z,102075.60
2023-03-04T14:11:12.656Z,102076.30
2023-03-04T14:13:43.444Z,102075.85
2023-03-04T14:16:14.222Z,102068.18
2023-03-04T14:18:45.064Z,102067.48
2023-03-04T14:21:15.715Z,102062.69
2023-03-04T14:23:46.497Z,102062.29
2023-03-04T14:26:17.254Z,102063.01
2023-03-04T14:28:48.028Z,102066.61
2023-03-04T14:31:18.658Z,102068.37
2023-03-04T14:33:48.636Z,102064.76
2023-03-04T14:36:19.003Z,102067.68
2023-03-04T14:38:49.801Z,102062.07
2023-03-04T14:41:20.369Z,102055.24
2023-03-04T14:43:50.978Z,102055.11
2023-03-04T14:46:21.722Z,102055.83
2023-03-04T14:48:52.502Z,102054.57
2023-03-04T14:51:23.227Z,102045.25
2023-03-04T14:53:53.987Z,102048.07
2023-03-04T14:56:24.789Z,102044.20
2023-03-04T14:58:55.514Z,102042.51
2023-03-04T15:01:26.303Z,102040.61
2023-03-04T15:03:57.106Z,102043.34
2023-03-04T15:06:27.798Z,102045.26
2023-03-04T15:08:58.623Z,102045.10
2023-03-04T15:11:29.321Z,102043.16
2023-03-04T15:14:00.111Z,102038.48
2023-03-04T15:16:30.937Z,102036.87
2023-03-04T15:19:01.728Z,102037.32
2023-03-04T15:21:32.353Z,102038.94
2023-03-04T15:24:03.129Z,102039.21
2023-03-04T15:26:33.888Z,102034.71
2023-03-04T15:29:04.656Z,102034.57
2023-03-04T15:31:35.414Z,102039.24
2023-03-04T15:34:06.178Z,102039.79
2023-03-04T15:36:37.017Z,102040.11
2023-03-04T15:39:07.398Z,102042.57
2023-03-04T15:41:38.169Z,102030.73
2023-03-04T15:44:09.068Z,102030.83
2023-03-04T15:46:39.722Z,102024.84
2023-03-04T15:49:10.427Z,102022.39
2023-03-04T15:51:41.177Z,102025.46
2023-03-04T15:54:12.029Z,102023.06
2023-03-04T15:56:42.171Z,102026.00
2023-03-04T15:59:12.866Z,102030.13
2023-03-04T16:01:43.810Z,102033.38
2023-03-04T16:04:14.520Z,102033.92
2023-03-04T16:06:45.153Z,102040.77
2023-03-04T16:09:15.925Z,102038.32
2023-03-04T16:11:46.679Z,102047.07
2023-03-04T16:14:17.447Z,102040.46
2023-03-04T16:16:48.257Z,102040.36
2023-03-04T16:19:19.004Z,102036.18
2023-03-04T16:21:49.763Z,102037.35
2023-03-04T16:24:20.596Z,102035.08
2023-03-04T16:26:51.342Z,102035.47
2023-03-04T16:29:22.156Z,102030.87
2023-03-04T16:31:52.953Z,102028.22
2023-03-04T16:34:23.736Z,102028.93
2023-03-04T16:36:54.511Z,102027.04
2023-03-04T16:39:25.324Z,102030.81
2023-03-04T16:41:56.095Z,102030.82
2023-03-04T16:44:26.917Z,102029.18
2023-03-04T16:46:57.696Z,102029.17
2023-03-04T16:49:28.499Z,102031.26
2023-03-04T16:51:59.268Z,102038.09
2023-03-04T16:54:30.089Z,102040.66
2023-03-04T16:57:01.056Z,102042.34
2023-03-04T16:59:31.653Z,102048.68
2023-03-04T17:02:02.522Z,102053.03
2023-03-04T17:04:32.948Z,102051.85
2023-03-04T17:07:03.753Z,102049.00
2023-03-04T17:09:34.529Z,102043.77
2023-03-04T17:12:04.972Z,102048.77
2023-03-04T17:14:35.766Z,102046.24
2023-03-04T17:17:06.670Z,102043.28
2023-03-04T17:19:37.360Z,102043.38
2023-03-04T17:22:08.156Z,102041.63
2023-03-04T17:24:38.946Z,102037.84
2023-03-04T17:27:09.805Z,102038.59
2023-03-04T17:29:40.541Z,102037.34
2023-03-04T17:32:11.399Z,102034.93
2023-03-04T17:34:42.158Z,102032.17
2023-03-04T17:37:12.965Z,102030.79
2023-03-04T17:39:43.821Z,102034.06
2023-03-04T17:42:14.591Z,102036.13
2023-03-04T17:44:45.447Z,102038.07
2023-03-04T17:47:16.252Z,102041.36
2023-03-04T17:49:46.770Z,102037.57
2023-03-04T17:52:17.578Z,102037.51
2023-03-04T17:54:48.387Z,102036.77
2023-03-04T17:57:19.172Z,102036.88
2023-03-04T17:59:49.961Z,102037.65
2023-03-04T18:02:20.794Z,102034.41
2023-03-04T18:04:51.565Z,102034.73
2023-03-04T18:07:21.717Z,102037.28
2023-03-04T18:09:52.522Z,102035.93
2023-03-04T18:12:23.322Z,102037.82
2023-03-04T18:14:54.068Z,102043.00
2023-03-04T18:17:24.720Z,102041.85
2023-03-04T18:19:55.085Z,102044.54
2023-03-04T18:22:25.978Z,102053.16
2023-03-04T18:24:56.672Z,102051.22
2023-03-04T18:27:27.142Z,102048.74
2023-03-04T18:29:57.969Z,102048.78
2023-03-04T18:32:28.547Z,102051.02
2023-03-04T18:34:59.202Z,102047.42
2023-03-04T18:37:29.990Z,102050.77
2023-03-04T18:40:00.790Z,102050.05
2023-03-04T18:42:31.601Z,102042.41
2023-03-04T18:45:02.400Z,102051.23
2023-03-04T18:47:33.241Z,102050.18
2023-03-04T18:50:04.028Z,102052.04
2023-03-04T18:52:34.894Z,102048.42
2023-03-04T18:55:05.382Z,102048.73
2023-03-04T18:57:36.257Z,102043.78
2023-03-04T19:00:06.999Z,102045.74
2023-03-04T19:02:38.004Z,102047.58
2023-03-04T19:05:08.261Z,102048.94
2023-03-04T19:07:39.187Z,102048.51
2023-03-04T19:10:09.617Z,102051.17
2023-03-04T19:12:40.435Z,102052.18
2023-03-04T19:15:11.232Z,102048.59
2023-03-04T19:17:42.055Z,102045.79
2023-03-04T19:20:12.836Z,102046.94
2023-03-04T19:22:43.641Z,102049.58
2023-03-04T19:25:14.447Z,102044.44
2023-03-04T19:27:45.234Z,102041.03
2023-03-04T19:30:16.024Z,102047.21
2023-03-04T19:32:46.853Z,102047.66
2023-03-04T19:35:17.633Z,102047.02
2023-03-04T19:37:48.506Z,102048.41
2023-03-04T19:40:18.953Z,102049.58
2023-03-04T19:42:49.434Z,102048.59
2023-03-04T19:45:20.315Z,102047.30
2023-03-04T19:47:51.079Z,102044.52
2023-03-04T19:50:21.871Z,102045.20
2023-03-04T19:52:52.713Z,102039.97
2023-03-04T19:55:23.520Z,102040.91
2023-03-04T19:57:54.338Z,102041.20
2023-03-04T20:00:25.178Z,102040.27
2023-03-04T20:02:55.955Z,102038.47
2023-03-04T20:05:26.790Z,102030.15
2023-03-04T20:07:57.637Z,102032.10
2023-03-04T20:10:28.092Z,102032.33
2023-03-04T20:12:58.901Z,102026.91
2023-03-04T20:15:29.732Z,102027.66
2023-03-04T20:18:00.588Z,102028.72
2023-03-04T20:20:31.283Z,102034.22
2023-03-04T20:23:02.083Z,102034.87
2023-03-04T20:25:32.865Z,102033.72
2023-03-04T20:28:03.712Z,102031.27
2023-03-04T20:30:34.437Z,102029.63
2023-03-04T20:33:04.999Z,102029.15
2023-03-04T20:35:35.814Z,102029.09
2023-03-04T20:38:06.649Z,102024.85
2023-03-04T20:40:37.049Z,102017.26
2023-03-04T20:43:07.894Z,102018.82
2023-03-04T20:45:38.590Z,102019.87
2023-03-04T20:48:09.401Z,102023.48
2023-03-04T20:50:40.194Z,102024.00
2023-03-04T20:53:11.046Z,102019.68
2023-03-04T20:55:41.875Z,102019.75
2023-03-04T20:58:12.632Z,102020.09
2023-03-04T21:00:43.433Z,102020.29
2023-03-04T21:03:14.251Z,102021.28
2023-03-04T21:05:45.029Z,102017.04
2023-03-04T21:08:15.856Z,102018.39
2023-03-04T21:10:46.641Z,102012.17
2023-03-04T21:13:17.509Z,102014.22
2023-03-04T21:15:48.323Z,102013.11
2023-03-04T21:18:19.057Z,102009.99
2023-03-04T21:20:49.837Z,102011.53
2023-03-04T21:23:20.645Z,102008.92
2023-03-04T21:25:51.432Z,102009.03
2023-03-04T21:28:22.240Z,102000.60
2023-03-04T21:30:52.755Z,101999.62
2023-03-04T21:33:23.611Z,101999.66
2023-03-04T21:35:54.403Z,101996.03
2023-03-04T21:38:25.190Z,101991.57
2023-03-04T21:40:55.992Z,101993.18
2023-03-04T21:43:26.817Z,101992.58
2023-03-04T21:45:57.603Z,101991.97
2023-03-04T21:48:28.568Z,101987.83
2023-03-04T21:50:59.286Z,101986.36
2023-03-04T21:53:30.062Z,101982.07
2023-03-04T21:56:00.842Z,101975.92
2023-03-04T21:58:31.649Z,101973.89
2023-03-04T22:01:02.505Z,101968.07
2023-03-04T22:03:32.981Z,101972.30
2023-03-04T22:06:03.817Z,101973.20
2023-03-04T22:08:34.577Z,101971.57
2023-03-04T22:11:05.378Z,101965.16
2023-03-04T22:13:36.211Z,101965.84
2023-03-04T22:16:07.065Z,101965.05
2023-03-04T22:18:39.571Z,101962.17
2023-03-04T22:21:08.642Z,101957.60
2023-03-04T22:23:39.554Z,101954.98
2023-03-04T22:26:10.249Z,101950.84
2023-03-04T22:28:41.062Z,101952.54
2023-03-04T22:31:11.874Z,101953.43
2023-03-04T22:33:42.352Z,101953.24
2023-03-04T22:36:13.151Z,101950.56
2023-03-04T22:38:43.701Z,101949.93
2023-03-04T22:41:14.496Z,101944.46
2023-03-04T22:43:45.330Z,101944.60
2023-03-04T22:46:15.841Z,101948.02
2023-03-04T22:48:46.682Z,101942.09
2023-03-04T22:51:17.544Z,101933.40
2023-03-04T22:53:48.290Z,101928.65
2023-03-04T22:56:19.098Z,101935.52
2023-03-04T22:58:49.918Z,101937.14
2023-03-04T23:01:20.755Z,101936.21
2023-03-04T23:03:51.626Z,101935.50
2023-03-04T23:06:22.361Z,101937.94
2023-03-04T23:08:53.272Z,101937.52
2023-03-04T23:11:24.032Z,101934.88
2023-03-04T23:13:54.821Z,101932.53
2023-03-04T23:16:25.667Z,101929.56
2023-03-04T23:18:59.188Z,101930.62
2023-03-04T23:21:27.275Z,101924.71
2023-03-04T23:23:58.084Z,101920.53
2023-03-04T23:26:28.922Z,101915.56
2023-03-04T23:28:59.699Z,101911.97
2023-03-04T23:31:30.485Z,101906.31
2023-03-04T23:34:01.328Z,101907.48
2023-03-04T23:36:32.171Z,101908.09
2023-03-04T23:39:02.962Z,101910.04
2023-03-04T23:41:33.763Z,101903.32
2023-03-04T23:44:04.606Z,101903.13
2023-03-04T23:46:35.554Z,101903.04
2023-03-04T23:49:06.264Z,101901.81
2023-03-04T23:51:37.080Z,101902.74
2023-03-04T23:54:08.054Z,101901.12
2023-03-04T23:56:38.749Z,101898.02
2023-03-04T23:59:09.607Z,101891.10
